WetterOnline ( https://www.wetteronline.de )

Wetter aktuell Ludwigsburg

Aktuelles Wetter: Schnarrenberg/Stuttgart (315m)

6-stündlich | Neueste Meldungen
Ortszeit Temperatur Wetter
Di, 03.08. 8:00 13.4° C bedeckt
Di, 03.08. 2:00 13.6° C leicht bewölkt
Mo, 02.08. 20:00 17.8° C wolkig
Mo, 02.08. 14:00 18.2° C bedeckt
Mo, 02.08. 8:00 14.7° C bedeckt
Mo, 02.08. 2:00 14.9° C bewölkt
So, 01.08. 20:00 17.9° C leicht bewölkt
So, 01.08. 14:00 18.6° C bewölkt
Ortszeit Temperatur Wetter
Di, 03.08. 12:00 13.9° C starker Regen
Di, 03.08. 11:50 13.9° C starker Regen
Di, 03.08. 11:40 15.9° C leichter Regen
Di, 03.08. 11:30 18.7° C wolkig
Di, 03.08. 11:20 18.7° C wolkig
Di, 03.08. 11:10 19.2° C wolkig
Di, 03.08. 11:00 18.1° C wolkig
Di, 03.08. 10:30 17.1° C wolkig
Di, 03.08. 10:00 16.4° C wolkig
Di, 03.08. 9:30 15.7° C bedeckt
Di, 03.08. 9:00 15.2° C bedeckt
Ortszeit Relative Feuchte Sichtweite
Di, 03.08. 8:00 87% 50 km
Di, 03.08. 2:00 88% 55 km
Mo, 02.08. 20:00 67% >70 km
Mo, 02.08. 14:00 68% >70 km
Mo, 02.08. 8:00 82% 55 km
Mo, 02.08. 2:00 79% >70 km
So, 01.08. 20:00 66% 60 km
So, 01.08. 14:00 74% 60 km
Ortszeit Relative Feuchte Sichtweite
Di, 03.08. 12:00 86% 3.9 km
Di, 03.08. 11:50 86% -
Di, 03.08. 11:40 78% -
Di, 03.08. 11:30 63% >70 km
Di, 03.08. 11:20 63% -
Di, 03.08. 11:10 66% -
Di, 03.08. 11:00 71% 60 km
Di, 03.08. 10:30 72% -
Di, 03.08. 10:00 73% -
Di, 03.08. 9:30 76% -
Di, 03.08. 9:00 79% >70 km
Ortszeit Niederschlagsmenge Niederschlagsart
Di, 03.08. 8:00 0.1 l/m2 in 12 Std. -
Di, 03.08. 2:00 0.1 l/m2 in 6 Std. Regen
Mo, 02.08. 20:00 0.5 l/m2 in 12 Std. Regen
Mo, 02.08. 14:00 0.1 l/m2 in 6 Std. Regen
Mo, 02.08. 8:00 0.0 l/m2 in 12 Std. -
Mo, 02.08. 2:00 0.0 l/m2 in 6 Std. -
So, 01.08. 20:00 0.2 l/m2 in 12 Std. Regen
So, 01.08. 14:00 0.2 l/m2 in 6 Std. Regen
Ortszeit Niederschlagsmenge Niederschlagsart
Di, 03.08. 12:00 1.1 l/m2 in 1 Std. Regen, Niederschlag
Di, 03.08. 11:50 keine Meldung -
Di, 03.08. 11:40 keine Meldung -
Di, 03.08. 11:30 0.0 l/m2 in 1 Std. -
Di, 03.08. 11:20 keine Meldung -
Di, 03.08. 11:10 keine Meldung -
Di, 03.08. 11:00 0.0 l/m2 in 1 Std. -
Di, 03.08. 10:30 0.0 l/m2 in 1 Std. -
Di, 03.08. 10:00 0.0 l/m2 in 1 Std. -
Di, 03.08. 9:30 0.0 l/m2 in 1 Std. -
Di, 03.08. 9:00 0.0 l/m2 in 1 Std. -
Ortszeit Stärke Spitze Richtung
km/h Bft. km/h Grad Sektor
Di, 03.08. 8:00 7 2 18 140° SO
Di, 03.08. 2:00 9 2 19 170° S
Mo, 02.08. 20:00 7 2 40 310° NW
Mo, 02.08. 14:00 9 2 31 180° S
Mo, 02.08. 8:00 7 2 14 180° S
Mo, 02.08. 2:00 6 1 24 190° S
So, 01.08. 20:00 14 3 32 180° S
So, 01.08. 14:00 6 1 15 200° S
Ortszeit Stärke Spitze Richtung
km/h Bft. km/h Grad Sektor
Di, 03.08. 12:00 28 4 43 300° NW
Di, 03.08. 11:50 28 4 - 300° NW
Di, 03.08. 11:40 24 4 - 300° NW
Di, 03.08. 11:30 9 2 17 290° W
Di, 03.08. 11:20 9 2 - 290° W
Di, 03.08. 11:10 6 1 - 290° W
Di, 03.08. 11:00 4 1 11 120° SO
Di, 03.08. 10:30 4 1 11 150° SO
Di, 03.08. 10:00 7 2 14 150° SO
Di, 03.08. 9:30 7 2 14 140° SO
Di, 03.08. 9:00 7 2 11 130° SO
Ortszeit Untergrenze Bedeckung Gattung
total tief tief mittel hoch
Di, 03.08. 8:00 5100 m 8/8 8/8 - - -
Di, 03.08. 2:00 3600 m 3/8 3/8 - - -
Mo, 02.08. 20:00 1500 m 8/8 2/8 - - -
Mo, 02.08. 14:00 1350 m 8/8 8/8 - - -
Mo, 02.08. 8:00 1410 m 8/8 8/8 - - -
Mo, 02.08. 2:00 1800 m 7/8 7/8 - - -
So, 01.08. 20:00 2700 m 8/8 1/8 - - -
So, 01.08. 14:00 540 m 8/8 7/8 - - -
Ortszeit Bedeckungsgrad in Achtel und Wolkenuntergrenze
Di, 03.08. 12:00 2(720m) 7(930m) 7(1500m)
Di, 03.08. 11:50 2(720m) 7(930m) 7(1500m)
Di, 03.08. 11:40 7(840m) 8(3300m)
Di, 03.08. 11:30 2(900m) 5(3000m) 8(3900m)
Di, 03.08. 11:20 2(900m) 5(3000m) 8(3900m)
Di, 03.08. 11:10 2(1500m) 3(2700m) 8(3900m)
Di, 03.08. 11:00 1(2400m) 7(4200m) 8(4800m)
Di, 03.08. 10:30 3(2100m) 7(4800m) 8(5400m)
Di, 03.08. 10:00 3(2100m) 6(4200m) 8(5100m)
Di, 03.08. 9:30 8(4200m) 8(6900m) 8(5100m)
Di, 03.08. 9:00 8(4500m) 8(6600m) 8(7200m)
Ortszeit Luftdruck NN (hPa) Tendenz (hPa in 3 Std.)
Di, 03.08. 8:00 1015 - 0,6
Di, 03.08. 2:00 1017 0,0
Mo, 02.08. 20:00 1015 + 0,7
Mo, 02.08. 14:00 1015 - 0,2
Mo, 02.08. 8:00 1015 + 0,9
Mo, 02.08. 2:00 1014 + 0,8
So, 01.08. 20:00 1012 + 1,2
So, 01.08. 14:00 1011 - 0,1
Ortszeit Luftdruck NN (hPa) Tendenz (hPa in 3 Std.)
Di, 03.08. 12:00 1016 + 0,7
Di, 03.08. 11:50 1016 keine Meldung
Di, 03.08. 11:40 1016 keine Meldung
Di, 03.08. 11:30 1015 + 0,2
Di, 03.08. 11:20 1015 keine Meldung
Di, 03.08. 11:10 1015 keine Meldung
Di, 03.08. 11:00 1015 + 0,3
Di, 03.08. 10:30 1015 + 0,1
Di, 03.08. 10:00 1015 - 0,1
Di, 03.08. 9:30 1015 - 0,1
Di, 03.08. 9:00 1015 - 0,2
Ortszeit Schneehöhe (cm)
Di, 03.08. 8:00 -
Di, 03.08. 2:00 -
Mo, 02.08. 20:00 -
Mo, 02.08. 14:00 -
Mo, 02.08. 8:00 -
Mo, 02.08. 2:00 -
So, 01.08. 20:00 -
So, 01.08. 14:00 -
Ortszeit Schneehöhe (cm)
Di, 03.08. 12:00 -
Di, 03.08. 11:50 -
Di, 03.08. 11:40 -
Di, 03.08. 11:30 -
Di, 03.08. 11:20 -
Di, 03.08. 11:10 -
Di, 03.08. 11:00 -
Di, 03.08. 10:30 -
Di, 03.08. 10:00 -
Di, 03.08. 9:30 -
Di, 03.08. 9:00 -
Link zu dieser Seite / Seite empfehlen

Das Wetter in ...